Conneaut, Ohio
Current Conditions -  °F | °C
As of 9:53 PM on Friday 21 Nov 2014 (Local Time) from KHZY Reporting Station
Clear Clear  
Wind Chill:   Ceiling: Unl
Heat Index: 15°   Visibility: 10mi
Dew Point:   Wind: 7mph
Humidity: 70%   Direction: 160°SSE
Pressure: 30.42"   Gusts: NA
Location:  41.94°N, 80.56°W
Report Text: KHZY 220253Z AUTO 16006KT 10SM CLR M09/M14 A3042 RMK AO2 SLP318 T10941139 56015
Loading
Personal Weather Stations






























Interactive Weather Map New forecast layout! Learn more

10-Day Weather Forecast

Advertisements
Track Severe Weather on mobile